createdAt,value
2023-01-19T00:00:34.713Z,94.60
2023-01-19T00:03:03.073Z,94.50
2023-01-19T00:05:30.009Z,94.40
2023-01-19T00:07:56.812Z,94.10
2023-01-19T00:10:23.500Z,94.70
2023-01-19T00:12:50.126Z,95.40
2023-01-19T00:15:16.769Z,95.90
2023-01-19T00:17:43.405Z,95.60
2023-01-19T00:20:10.545Z,95.20
2023-01-19T00:22:37.172Z,94.80
2023-01-19T00:25:04.180Z,94.90
2023-01-19T00:27:34.747Z,95.30
2023-01-19T00:30:02.009Z,95.00
2023-01-19T00:32:28.722Z,94.70
2023-01-19T00:34:55.300Z,95.10
2023-01-19T00:37:21.963Z,94.90
2023-01-19T00:39:48.543Z,94.80
2023-01-19T00:42:33.532Z,95.20
2023-01-19T00:45:00.218Z,95.30
2023-01-19T00:47:26.847Z,95.30
2023-01-19T00:49:53.478Z,95.20
2023-01-19T00:52:20.070Z,95.30
2023-01-19T00:54:46.761Z,95.40
2023-01-19T00:57:14.625Z,95.60
2023-01-19T00:59:41.275Z,95.50
2023-01-19T01:02:08.178Z,95.80
2023-01-19T01:04:34.984Z,95.80
2023-01-19T01:07:01.728Z,95.70
2023-01-19T01:09:28.447Z,95.90
2023-01-19T01:11:55.170Z,95.90
2023-01-19T01:14:22.007Z,95.80
2023-01-19T01:16:48.760Z,95.80
2023-01-19T01:19:16.185Z,95.70
2023-01-19T01:21:42.843Z,95.70
2023-01-19T01:24:10.173Z,95.70
2023-01-19T01:26:36.883Z,95.40
2023-01-19T01:29:05.526Z,95.60
2023-01-19T01:31:32.258Z,96.10
2023-01-19T01:33:58.893Z,96.10
2023-01-19T01:36:28.982Z,96.10
2023-01-19T01:38:55.606Z,96.10
2023-01-19T01:41:22.244Z,96.00
2023-01-19T01:43:58.096Z,96.10
2023-01-19T01:46:27.153Z,96.30
2023-01-19T01:48:56.569Z,96.40
2023-01-19T01:51:29.528Z,96.30
2023-01-19T01:54:09.373Z,96.30
2023-01-19T01:56:39.421Z,96.30
2023-01-19T01:59:11.093Z,96.70
2023-01-19T02:01:56.471Z,96.60
2023-01-19T02:04:23.982Z,96.50
2023-01-19T02:07:09.126Z,96.40
2023-01-19T02:09:56.187Z,96.50
2023-01-19T02:12:42.120Z,96.50
2023-01-19T02:15:17.666Z,96.50
2023-01-19T02:17:44.507Z,96.70
2023-01-19T02:20:11.861Z,96.80
2023-01-19T02:22:49.098Z,96.90
2023-01-19T02:25:17.948Z,96.60
2023-01-19T02:27:44.830Z,96.30
2023-01-19T02:30:13.502Z,96.30
2023-01-19T02:32:40.144Z,96.40
2023-01-19T02:35:07.165Z,96.40
2023-01-19T02:37:37.551Z,96.30
2023-01-19T02:40:08.379Z,96.20
2023-01-19T02:42:48.516Z,96.30
2023-01-19T02:45:18.693Z,96.50
2023-01-19T02:47:47.657Z,96.40
2023-01-19T02:50:36.115Z,96.50
2023-01-19T02:53:20.719Z,96.70
2023-01-19T02:55:59.076Z,96.60
2023-01-19T02:58:39.322Z,96.60
2023-01-19T03:01:33.527Z,96.60
2023-01-19T03:04:15.910Z,96.50
2023-01-19T03:06:49.418Z,96.50
2023-01-19T03:09:34.338Z,96.30
2023-01-19T03:12:32.634Z,96.20
2023-01-19T03:15:09.711Z,95.90
2023-01-19T03:17:37.105Z,95.80
2023-01-19T03:20:06.128Z,95.90
2023-01-19T03:22:34.048Z,95.80
2023-01-19T03:25:02.926Z,95.90
2023-01-19T03:27:33.613Z,95.80
2023-01-19T03:30:06.984Z,95.90
2023-01-19T03:32:37.854Z,95.70
2023-01-19T03:35:11.705Z,95.30
2023-01-19T03:37:42.990Z,95.50
2023-01-19T03:40:11.982Z,96.00
2023-01-19T03:42:40.482Z,96.30
2023-01-19T03:45:09.011Z,96.50
2023-01-19T03:47:36.397Z,96.00
2023-01-19T03:50:07.288Z,96.20
2023-01-19T03:52:34.191Z,96.70
2023-01-19T03:55:06.070Z,96.90
2023-01-19T03:57:32.722Z,96.40
2023-01-19T03:59:59.300Z,97.00
2023-01-19T04:02:25.949Z,97.00
2023-01-19T04:04:52.607Z,96.70
2023-01-19T04:07:19.300Z,96.70
2023-01-19T04:09:46.021Z,97.00
2023-01-19T04:12:12.599Z,96.80
2023-01-19T04:14:39.264Z,96.80
2023-01-19T04:17:05.897Z,96.30
2023-01-19T04:19:32.615Z,96.50
2023-01-19T04:21:59.639Z,95.80
2023-01-19T04:24:27.113Z,96.20
2023-01-19T04:26:53.814Z,95.90
2023-01-19T04:29:20.436Z,95.70
2023-01-19T04:31:47.074Z,96.10
2023-01-19T04:34:13.706Z,96.20
2023-01-19T04:36:40.417Z,96.00
2023-01-19T04:39:08.944Z,96.10
2023-01-19T04:41:35.660Z,96.20
2023-01-19T04:44:02.324Z,96.10
2023-01-19T04:46:28.952Z,95.80
2023-01-19T04:48:55.639Z,95.80
2023-01-19T04:51:22.291Z,95.20
2023-01-19T04:53:48.935Z,95.70
2023-01-19T04:56:15.604Z,95.60
2023-01-19T04:58:42.203Z,95.70
2023-01-19T05:01:09.710Z,95.50
2023-01-19T05:03:36.500Z,95.70
2023-01-19T05:06:03.218Z,96.20
2023-01-19T05:08:29.794Z,96.10
2023-01-19T05:10:57.458Z,95.90
2023-01-19T05:13:24.116Z,96.50
2023-01-19T05:15:50.882Z,96.40
2023-01-19T05:18:18.207Z,96.40
2023-01-19T05:20:45.057Z,96.20
2023-01-19T05:23:11.697Z,96.10
2023-01-19T05:25:38.503Z,95.80
2023-01-19T05:28:05.155Z,96.40
2023-01-19T05:30:31.785Z,96.30
2023-01-19T05:32:58.873Z,96.20
2023-01-19T05:35:35.325Z,96.50
2023-01-19T05:38:02.801Z,96.60
2023-01-19T05:40:29.384Z,96.70
2023-01-19T05:43:00.641Z,96.60
2023-01-19T05:45:28.340Z,96.50
2023-01-19T05:47:55.679Z,96.30
2023-01-19T05:50:22.741Z,96.60
2023-01-19T05:52:49.369Z,96.50
2023-01-19T05:55:16.552Z,96.20
2023-01-19T05:57:43.420Z,96.20
2023-01-19T06:00:12.032Z,96.20
2023-01-19T06:02:38.703Z,96.00
2023-01-19T06:05:05.990Z,95.80
2023-01-19T06:07:32.590Z,96.10
2023-01-19T06:09:59.183Z,95.60
2023-01-19T06:12:25.872Z,95.50
2023-01-19T06:14:52.785Z,95.40
2023-01-19T06:17:20.093Z,95.40
2023-01-19T06:19:46.737Z,95.40
2023-01-19T06:22:13.416Z,95.30
2023-01-19T06:24:40.041Z,95.00
2023-01-19T06:27:06.725Z,95.40
2023-01-19T06:29:33.336Z,95.20
2023-01-19T06:31:59.955Z,95.20
2023-01-19T06:34:28.780Z,95.10
2023-01-19T06:36:56.443Z,95.10
2023-01-19T06:39:23.166Z,94.90
2023-01-19T06:41:49.801Z,94.90
2023-01-19T06:44:16.388Z,94.80
2023-01-19T06:46:42.999Z,94.60
2023-01-19T06:49:09.578Z,94.70
2023-01-19T06:51:36.210Z,94.50
2023-01-19T06:54:02.999Z,94.50
2023-01-19T06:56:29.635Z,94.50
2023-01-19T06:58:56.334Z,94.40
2023-01-19T07:01:23.105Z,94.60
2023-01-19T07:03:49.813Z,94.70
2023-01-19T07:06:16.620Z,94.70
2023-01-19T07:08:43.252Z,94.60
2023-01-19T07:11:26.575Z,94.60
2023-01-19T07:13:57.751Z,94.40
2023-01-19T07:16:24.690Z,94.30
2023-01-19T07:18:51.838Z,94.20
2023-01-19T07:21:19.153Z,94.10
2023-01-19T07:23:49.119Z,94.20
2023-01-19T07:26:18.458Z,94.30
2023-01-19T07:28:46.793Z,94.20
2023-01-19T07:31:15.476Z,94.00
2023-01-19T07:33:42.166Z,94.00
2023-01-19T07:36:09.198Z,93.90
2023-01-19T07:38:35.862Z,94.00
2023-01-19T07:41:04.822Z,93.90
2023-01-19T07:43:31.961Z,94.00
2023-01-19T07:46:00.434Z,94.20
2023-01-19T07:48:27.750Z,94.80
2023-01-19T07:50:58.908Z,94.80
2023-01-19T07:53:25.551Z,94.60
2023-01-19T07:55:56.680Z,94.40
2023-01-19T07:58:26.552Z,94.10
2023-01-19T08:00:53.348Z,94.30
2023-01-19T08:03:20.217Z,94.30
2023-01-19T08:05:51.403Z,94.30
2023-01-19T08:08:18.380Z,94.30
2023-01-19T08:10:45.106Z,94.30
2023-01-19T08:13:11.757Z,94.40
2023-01-19T08:15:38.460Z,94.40
2023-01-19T08:18:05.651Z,94.10
2023-01-19T08:20:32.557Z,94.10
2023-01-19T08:23:02.872Z,94.20
2023-01-19T08:25:39.477Z,94.10
2023-01-19T08:28:07.055Z,94.10
2023-01-19T08:30:34.489Z,94.00
2023-01-19T08:33:04.566Z,93.80
2023-01-19T08:35:32.512Z,93.80
2023-01-19T08:38:01.431Z,93.90
2023-01-19T08:40:36.074Z,94.00
2023-01-19T08:43:06.639Z,93.80
2023-01-19T08:45:34.345Z,94.30
2023-01-19T08:48:01.369Z,94.40
2023-01-19T08:50:32.474Z,94.40
2023-01-19T08:53:01.060Z,94.20
2023-01-19T08:55:28.814Z,95.10
2023-01-19T08:57:57.882Z,96.70
2023-01-19T09:00:25.425Z,96.90
2023-01-19T09:02:52.135Z,96.60
2023-01-19T09:05:19.172Z,95.90
2023-01-19T09:07:48.017Z,95.50
2023-01-19T09:10:15.798Z,95.90
2023-01-19T09:12:43.824Z,95.70
2023-01-19T09:15:12.267Z,95.50
2023-01-19T09:17:39.028Z,95.20
2023-01-19T09:20:06.270Z,95.00
2023-01-19T09:22:33.471Z,95.00
2023-01-19T09:25:00.409Z,94.90
2023-01-19T09:27:26.983Z,94.70
2023-01-19T09:29:54.045Z,95.10
2023-01-19T09:32:21.559Z,94.50
2023-01-19T09:34:48.561Z,94.60
2023-01-19T09:37:16.143Z,94.80
2023-01-19T09:39:42.801Z,94.40
2023-01-19T09:42:39.797Z,94.60
2023-01-19T09:45:13.969Z,93.70
2023-01-19T09:47:40.860Z,93.80
2023-01-19T09:50:24.375Z,93.60
2023-01-19T09:53:04.419Z,93.80
2023-01-19T09:55:31.127Z,93.20
2023-01-19T09:57:58.738Z,93.40
2023-01-19T10:00:27.870Z,92.90
2023-01-19T10:03:16.070Z,92.80
2023-01-19T10:06:07.106Z,92.60
2023-01-19T10:09:11.498Z,92.60
2023-01-19T10:11:53.190Z,92.20
2023-01-19T10:14:29.414Z,92.10
2023-01-19T10:17:05.419Z,91.30
2023-01-19T10:19:42.041Z,91.20
2023-01-19T10:22:22.100Z,91.60
2023-01-19T10:24:53.603Z,90.10
2023-01-19T10:27:24.537Z,90.70
2023-01-19T10:29:51.470Z,90.20
2023-01-19T10:32:24.401Z,89.10
2023-01-19T10:34:51.687Z,89.30
2023-01-19T10:37:18.282Z,89.50
2023-01-19T10:39:54.231Z,89.10
2023-01-19T10:42:20.960Z,83.70
2023-01-19T10:44:49.225Z,86.30
2023-01-19T10:47:21.652Z,84.30
2023-01-19T10:49:48.953Z,87.20
2023-01-19T10:52:44.563Z,84.90
2023-01-19T10:55:43.686Z,85.80
2023-01-19T10:58:31.025Z,83.20
2023-01-19T11:01:35.953Z,82.60
2023-01-19T11:04:28.171Z,83.00
2023-01-19T11:07:19.456Z,78.10
2023-01-19T11:09:47.145Z,81.50
2023-01-19T11:12:31.743Z,77.60
2023-01-19T11:14:58.429Z,79.40
2023-01-19T11:17:26.193Z,78.50
2023-01-19T11:19:56.293Z,77.60
2023-01-19T11:22:27.369Z,74.50
2023-01-19T11:24:58.381Z,77.90
2023-01-19T11:27:25.620Z,76.70
2023-01-19T11:30:25.095Z,73.10
2023-01-19T11:32:52.317Z,76.50
2023-01-19T11:35:39.721Z,72.40
2023-01-19T11:38:12.432Z,73.70
2023-01-19T11:40:40.348Z,75.10
2023-01-19T11:43:12.550Z,76.10
2023-01-19T11:45:40.010Z,71.30
2023-01-19T11:48:12.159Z,72.30
2023-01-19T11:50:43.498Z,71.80
2023-01-19T11:53:26.700Z,73.50
2023-01-19T11:56:01.386Z,72.70
2023-01-19T11:58:28.372Z,72.20
2023-01-19T12:01:10.583Z,74.30
2023-01-19T12:04:19.538Z,73.70
2023-01-19T12:06:54.239Z,74.70
2023-01-19T12:09:42.691Z,72.40
2023-01-19T12:12:12.324Z,70.00
2023-01-19T12:14:45.899Z,71.70
2023-01-19T12:17:33.720Z,70.90
2023-01-19T12:20:21.344Z,69.70
2023-01-19T12:22:57.596Z,72.00
2023-01-19T12:25:53.299Z,71.70
2023-01-19T12:28:28.570Z,70.20
2023-01-19T12:30:56.097Z,71.60
2023-01-19T12:33:33.313Z,72.40
2023-01-19T12:36:10.060Z,71.60
2023-01-19T12:39:01.864Z,71.80
2023-01-19T12:41:39.305Z,71.50
2023-01-19T12:44:11.971Z,67.80
2023-01-19T12:46:52.231Z,68.10
2023-01-19T12:49:42.551Z,67.50
2023-01-19T12:52:27.099Z,68.80
2023-01-19T12:55:01.874Z,65.40
2023-01-19T12:57:58.442Z,69.40
2023-01-19T13:00:25.056Z,69.10
2023-01-19T13:02:53.607Z,64.70
2023-01-19T13:05:33.475Z,66.60
2023-01-19T13:08:03.139Z,66.60
2023-01-19T13:11:10.128Z,67.50
2023-01-19T13:14:06.041Z,66.60
2023-01-19T13:16:57.846Z,64.70
2023-01-19T13:19:35.878Z,67.10
2023-01-19T13:22:40.987Z,67.40
2023-01-19T13:25:33.583Z,66.20
2023-01-19T13:28:01.117Z,66.40
2023-01-19T13:30:29.542Z,64.50
2023-01-19T13:33:01.075Z,66.00
2023-01-19T13:35:28.404Z,66.50
2023-01-19T13:37:56.682Z,64.60
2023-01-19T13:40:36.036Z,66.50
2023-01-19T13:43:03.458Z,65.80
2023-01-19T13:45:36.891Z,65.60
2023-01-19T13:48:07.459Z,66.60
2023-01-19T13:50:37.308Z,66.70
2023-01-19T13:53:14.252Z,66.00
2023-01-19T13:55:40.868Z,65.70
2023-01-19T13:58:20.916Z,66.00
2023-01-19T14:00:48.859Z,65.60
2023-01-19T14:03:15.614Z,65.00
2023-01-19T14:05:43.911Z,65.20
2023-01-19T14:08:12.746Z,65.20
2023-01-19T14:10:41.978Z,65.30
2023-01-19T14:13:23.263Z,65.00
2023-01-19T14:15:51.740Z,65.10
2023-01-19T14:18:18.566Z,64.80
2023-01-19T14:21:06.007Z,64.50
2023-01-19T14:23:49.287Z,64.50
2023-01-19T14:26:37.645Z,63.10
2023-01-19T14:29:32.803Z,63.10
2023-01-19T14:32:16.171Z,62.10
2023-01-19T14:34:50.241Z,64.00
2023-01-19T14:37:37.825Z,63.70
2023-01-19T14:40:16.114Z,64.70
2023-01-19T14:42:48.892Z,64.80
2023-01-19T14:45:22.755Z,62.40
2023-01-19T14:48:12.790Z,63.50
2023-01-19T14:50:51.004Z,63.70
2023-01-19T14:53:29.739Z,62.80
2023-01-19T14:56:05.666Z,63.20
2023-01-19T14:58:36.041Z,63.30
2023-01-19T15:01:03.544Z,63.10
2023-01-19T15:03:44.676Z,63.80
2023-01-19T15:06:17.856Z,63.20
2023-01-19T15:08:45.621Z,63.80
2023-01-19T15:11:22.067Z,63.70
2023-01-19T15:13:49.184Z,63.90
2023-01-19T15:16:16.173Z,64.00
2023-01-19T15:18:42.835Z,62.90
2023-01-19T15:21:19.466Z,63.80
2023-01-19T15:23:47.408Z,63.80
2023-01-19T15:26:17.623Z,64.10
2023-01-19T15:28:45.431Z,63.90
2023-01-19T15:31:16.587Z,64.10
2023-01-19T15:33:43.745Z,64.20
2023-01-19T15:36:17.838Z,64.10
2023-01-19T15:38:45.352Z,64.30
2023-01-19T15:41:14.291Z,64.40
2023-01-19T15:43:40.989Z,64.20
2023-01-19T15:46:07.901Z,64.60
2023-01-19T15:48:34.605Z,64.80
2023-01-19T15:51:01.245Z,65.00
2023-01-19T15:53:27.925Z,65.10
2023-01-19T15:55:56.730Z,65.20
2023-01-19T15:58:24.637Z,65.20
2023-01-19T16:00:56.699Z,65.10
2023-01-19T16:03:24.622Z,65.20
2023-01-19T16:05:51.504Z,65.50
2023-01-19T16:08:18.280Z,65.70
2023-01-19T16:10:44.876Z,65.70
2023-01-19T16:13:12.437Z,65.90
2023-01-19T16:15:40.199Z,66.20
2023-01-19T16:18:07.081Z,66.30
2023-01-19T16:20:33.947Z,66.40
2023-01-19T16:23:14.416Z,66.70
2023-01-19T16:25:42.156Z,66.90
2023-01-19T16:28:08.980Z,67.20
2023-01-19T16:30:35.685Z,67.30
2023-01-19T16:33:02.355Z,67.50
2023-01-19T16:35:28.985Z,68.00
2023-01-19T16:37:55.626Z,68.60
2023-01-19T16:40:22.281Z,69.10
2023-01-19T16:42:49.276Z,69.50
2023-01-19T16:45:15.993Z,70.00
2023-01-19T16:47:43.435Z,70.70
2023-01-19T16:50:13.400Z,71.30
2023-01-19T16:52:40.208Z,70.90
2023-01-19T16:55:09.549Z,71.30
2023-01-19T16:57:38.921Z,71.70
2023-01-19T17:00:10.248Z,72.50
2023-01-19T17:02:37.345Z,73.00
2023-01-19T17:05:04.457Z,73.60
2023-01-19T17:07:31.136Z,73.60
2023-01-19T17:09:57.717Z,74.00
2023-01-19T17:12:24.532Z,74.30
2023-01-19T17:14:51.121Z,74.40
2023-01-19T17:17:17.749Z,74.30
2023-01-19T17:19:45.123Z,74.20
2023-01-19T17:22:12.870Z,74.50
2023-01-19T17:24:42.222Z,75.00
2023-01-19T17:27:09.195Z,75.80
2023-01-19T17:29:35.960Z,75.80
2023-01-19T17:32:02.725Z,76.20
2023-01-19T17:34:29.415Z,76.50
2023-01-19T17:37:02.641Z,76.80
2023-01-19T17:39:29.521Z,77.10
2023-01-19T17:41:56.156Z,76.60
2023-01-19T17:44:22.751Z,76.80
2023-01-19T17:46:49.427Z,76.70
2023-01-19T17:49:16.227Z,76.70
2023-01-19T17:51:42.858Z,77.10
2023-01-19T17:54:10.814Z,77.40
2023-01-19T17:56:38.510Z,77.90
2023-01-19T17:59:07.891Z,78.20
2023-01-19T18:01:39.515Z,77.80
2023-01-19T18:04:07.809Z,77.80
2023-01-19T18:06:34.787Z,77.70
2023-01-19T18:09:01.444Z,78.40
2023-01-19T18:11:28.607Z,78.10
2023-01-19T18:13:55.810Z,79.90
2023-01-19T18:16:25.203Z,80.90
2023-01-19T18:18:53.670Z,80.10
2023-01-19T18:21:22.033Z,81.70
2023-01-19T18:23:50.052Z,81.00
2023-01-19T18:26:20.075Z,81.30
2023-01-19T18:28:48.123Z,83.30
2023-01-19T18:31:17.287Z,83.50
2023-01-19T18:33:44.452Z,82.80
2023-01-19T18:36:11.261Z,84.40
2023-01-19T18:38:38.758Z,82.40
2023-01-19T18:41:08.290Z,82.90
2023-01-19T18:43:34.984Z,82.40
2023-01-19T18:46:01.702Z,82.60
2023-01-19T18:48:28.757Z,81.80
2023-01-19T18:50:55.427Z,81.60
2023-01-19T18:53:22.977Z,81.20
2023-01-19T18:55:57.715Z,80.90
2023-01-19T18:58:24.845Z,80.80
2023-01-19T19:00:51.450Z,81.10
2023-01-19T19:03:18.043Z,82.40
2023-01-19T19:05:44.781Z,82.90
2023-01-19T19:08:11.737Z,82.40
2023-01-19T19:10:40.456Z,82.00
2023-01-19T19:13:07.375Z,84.50
2023-01-19T19:15:34.315Z,85.60
2023-01-19T19:18:00.988Z,85.50
2023-01-19T19:20:27.844Z,85.30
2023-01-19T19:22:55.385Z,87.50
2023-01-19T19:25:22.654Z,88.00
2023-01-19T19:27:52.726Z,86.40
2023-01-19T19:30:20.783Z,87.00
2023-01-19T19:32:54.434Z,86.60
2023-01-19T19:35:21.263Z,87.20
2023-01-19T19:37:48.746Z,86.10
2023-01-19T19:40:15.879Z,86.30
2023-01-19T19:42:42.574Z,87.90
2023-01-19T19:45:09.753Z,87.80
2023-01-19T19:47:36.377Z,87.80
2023-01-19T19:50:03.052Z,86.50
2023-01-19T19:52:29.671Z,85.90
2023-01-19T19:54:56.297Z,85.90
2023-01-19T19:57:22.949Z,85.80
2023-01-19T19:59:49.515Z,85.90
2023-01-19T20:02:16.229Z,85.70
2023-01-19T20:04:44.235Z,85.90
2023-01-19T20:07:10.952Z,86.50
2023-01-19T20:09:37.640Z,87.10
2023-01-19T20:12:04.309Z,87.00
2023-01-19T20:14:30.947Z,87.10
2023-01-19T20:16:57.645Z,87.40
2023-01-19T20:19:24.311Z,87.00
2023-01-19T20:21:50.919Z,87.00
2023-01-19T20:24:20.660Z,86.80
2023-01-19T20:26:51.469Z,87.20
2023-01-19T20:29:19.179Z,87.10
2023-01-19T20:31:49.851Z,86.70
2023-01-19T20:34:19.774Z,86.50
2023-01-19T20:36:50.210Z,87.00
2023-01-19T20:39:18.519Z,87.00
2023-01-19T20:41:45.678Z,86.70
2023-01-19T20:44:20.929Z,87.10
2023-01-19T20:46:48.147Z,87.00
2023-01-19T20:49:14.919Z,87.30
2023-01-19T20:51:45.016Z,87.10
2023-01-19T20:54:18.113Z,87.60
2023-01-19T20:56:45.002Z,87.40
2023-01-19T20:59:12.351Z,87.40
2023-01-19T21:01:40.023Z,87.60
2023-01-19T21:04:07.443Z,87.70
2023-01-19T21:06:34.240Z,87.60
2023-01-19T21:09:01.034Z,87.70
2023-01-19T21:11:28.047Z,87.30
2023-01-19T21:13:57.739Z,86.90
2023-01-19T21:16:30.495Z,87.10
2023-01-19T21:18:57.436Z,87.10
2023-01-19T21:21:30.870Z,87.30
2023-01-19T21:23:59.883Z,87.60
2023-01-19T21:26:26.799Z,87.20
2023-01-19T21:28:53.559Z,88.20
2023-01-19T21:31:22.540Z,87.70
2023-01-19T21:33:53.283Z,87.50
2023-01-19T21:36:21.267Z,87.30
2023-01-19T21:38:48.179Z,87.60
2023-01-19T21:41:16.476Z,87.60
2023-01-19T21:43:43.507Z,87.40
2023-01-19T21:46:32.913Z,87.60
2023-01-19T21:49:02.064Z,87.60
2023-01-19T21:51:30.133Z,88.00
2023-01-19T21:53:59.374Z,87.70
2023-01-19T21:56:27.929Z,87.50
2023-01-19T21:58:56.098Z,87.60
2023-01-19T22:01:23.735Z,88.40
2023-01-19T22:03:55.259Z,90.20
2023-01-19T22:06:22.119Z,89.80
2023-01-19T22:08:48.895Z,90.00
2023-01-19T22:11:17.561Z,89.10
2023-01-19T22:13:44.487Z,89.40
2023-01-19T22:16:17.103Z,89.20
2023-01-19T22:18:45.921Z,90.00
2023-01-19T22:21:15.282Z,90.50
2023-01-19T22:23:42.641Z,90.50
2023-01-19T22:26:11.308Z,91.00
2023-01-19T22:28:38.410Z,91.10
2023-01-19T22:31:10.662Z,90.80
2023-01-19T22:33:37.369Z,90.90
2023-01-19T22:36:13.334Z,91.30
2023-01-19T22:38:40.544Z,90.90
2023-01-19T22:41:28.441Z,90.90
2023-01-19T22:43:57.089Z,90.80
2023-01-19T22:46:26.609Z,90.70
2023-01-19T22:48:54.235Z,90.50
2023-01-19T22:51:22.975Z,90.40
2023-01-19T22:53:50.033Z,90.40
2023-01-19T22:56:17.778Z,90.60
2023-01-19T22:58:45.337Z,90.50
2023-01-19T23:01:36.449Z,90.40
2023-01-19T23:04:04.477Z,90.20
2023-01-19T23:06:33.808Z,90.20
2023-01-19T23:09:03.320Z,90.40
2023-01-19T23:11:35.843Z,90.30
2023-01-19T23:14:04.111Z,90.50
2023-01-19T23:16:30.780Z,90.60
2023-01-19T23:18:58.775Z,90.60
2023-01-19T23:21:27.693Z,90.70
2023-01-19T23:23:55.870Z,90.70
2023-01-19T23:26:23.513Z,90.50
2023-01-19T23:28:58.319Z,90.70
2023-01-19T23:31:28.429Z,90.50
2023-01-19T23:33:57.622Z,90.40
2023-01-19T23:36:26.853Z,90.40
2023-01-19T23:38:59.165Z,90.20
2023-01-19T23:41:28.631Z,90.70
2023-01-19T23:43:55.509Z,90.30
2023-01-19T23:46:22.244Z,90.30
2023-01-19T23:48:49.290Z,90.20
2023-01-19T23:51:19.096Z,90.30
2023-01-19T23:53:46.157Z,90.40
2023-01-19T23:56:19.043Z,90.40
2023-01-19T23:58:47.023Z,90.40
